Dallas Center, Iowa
Current Conditions -  °F | °C
As of 7:35 PM on Friday 28 Nov 2014 (Local Time) from KPRO Reporting Station
Clear Clear  
Wind Chill: 24°   Ceiling: Unl
Heat Index: 32°   Visibility: 10mi
Dew Point: 30°   Wind: 8mph
Humidity: 94%   Direction: 130°SE
Pressure: 29.7"   Gusts: NA
Location:  41.68°N, 93.96°W
Report Text: KPRO 290135Z AUTO 13007KT 10SM CLR 00/M01 A2970 RMK AO2 T10021010
Loading
Personal Weather Stations






























Interactive Weather Map New forecast layout! Learn more

10-Day Weather Forecast

Advertisements
Track Severe Weather on mobile